ADDS METAR Data INFO
IDs: Format: Raw Decoded Include TAF

Data at: 2033 UTC 16 Dec 2017

KARM 162015Z AUTO 09009KT 10SM OVC032 15/04 A3005 RMK AO2 T01450042
KARM 161955Z AUTO 09009KT 10SM OVC034 14/04 A3007 RMK AO2 T01430040
KARM 161935Z AUTO 08006KT 10SM OVC036 15/04 A3008 RMK AO2 T01450035
KARM 161915Z AUTO 07006KT 10SM OVC042 14/04 A3009 RMK AO2 T01420043
KARM 161855Z AUTO 08010KT 10SM OVC044 14/04 A3010 RMK AO2 T01420041
KARM 161835Z AUTO 08007KT 10SM OVC048 14/04 A3011 RMK AO2 T01420040
KARM 161815Z AUTO 09012KT 10SM BKN050 BKN090 14/03 A3013 RMK AO2 T01430032
KARM 161755Z AUTO 08008G15KT 10SM SCT050 13/03 A3014 RMK AO2 T01310030 10131 20078
KARM 161735Z AUTO 08011KT 10SM SCT055 SCT075 13/03 A3015 RMK AO2 T01260028
KARM 161715Z AUTO 09009KT 10SM OVC055 13/03 A3017 RMK AO2 T01250029
KARM 161655Z AUTO 08009KT 10SM OVC055 12/02 A3018 RMK AO2 T01220019
KARM 161635Z AUTO 08005KT 10SM OVC065 12/02 A3020 RMK AO2 T01160020
KARM 161615Z AUTO 08007KT 10SM BKN065 OVC080 11/02 A3020 RMK AO2 T01110023
KARM 161555Z AUTO 08004KT 10SM SCT065 BKN080 11/03 A3021 RMK AO2 T01090028
KARM 161535Z AUTO 08005KT 10SM BKN065 OVC075 10/03 A3021 RMK AO2 T01020028
KARM 161515Z AUTO 08005KT 10SM BKN065 OVC075 10/04 A3021 RMK AO2 T00990035
KARM 161455Z AUTO 08003KT 10SM BKN065 OVC080 10/03 A3023 RMK AO2 T00950034
KARM 161435Z AUTO 00000KT 10SM BKN065 OVC090 09/04 A3023 RMK AO2 T00900035
KARM 161415Z AUTO 00000KT 10SM OVC090 09/04 A3022 RMK AO2 T00870036
KARM 161355Z AUTO 00000KT 10SM SCT060 BKN075 OVC100 08/04 A3020 RMK AO2 T00840037
KARM 161335Z AUTO 00000KT 10SM SCT060 OVC075 08/04 A3020 RMK AO2 T00820039
KARM 161315Z AUTO 07003KT 10SM OVC070 08/04 A3021 RMK AO2 T00810044
KARM 161255Z AUTO 00000KT 10SM OVC080 08/05 A3021 RMK AO2 T00800051
KARM 161235Z AUTO 00000KT 10SM OVC080 08/05 A3021 RMK AO2 T00790049
KARM 161215Z AUTO 00000KT 10SM OVC070 08/05 A3021 RMK AO2 T00800050
KARM 161155Z AUTO 00000KT 10SM OVC080 08/06 A3021 RMK AO2 T00800056 10080 20041
KARM 161135Z AUTO 00000KT 10SM OVC080 08/06 A3021 RMK AO2 T00800056
KARM 161115Z AUTO 00000KT 10SM OVC080 08/06 A3022 RMK AO2 T00780055
KARM 161055Z AUTO 00000KT 10SM BKN080 OVC100 08/06 A3023 RMK AO2 T00770056
KARM 161035Z AUTO 00000KT 10SM SCT080 OVC100 08/06 A3021 RMK AO2 T00760056
KARM 161015Z AUTO 00000KT 10SM OVC090 08/06 A3023 RMK AO2 T00750057
KARM 160955Z AUTO 00000KT 10SM SCT070 OVC090 07/05 A3024 RMK AO2 T00740052
KARM 160935Z AUTO 00000KT 10SM BKN070 OVC090 07/05 A3024 RMK AO2 T00720053
KARM 160915Z AUTO 00000KT 10SM BKN070 OVC090 07/05 A3024 RMK AO2 T00700053
KARM 160855Z AUTO 00000KT 10SM SCT070 OVC090 07/05 A3024 RMK AO2 T00670050
KARM 160835Z AUTO 00000KT 10SM OVC090 06/05 A3025 RMK AO2 T00640048
KARM 160815Z AUTO 00000KT 10SM OVC090 06/05 A3025 RMK AO2 T00640048
KARM 160755Z AUTO 00000KT 10SM OVC100 06/04 A3026 RMK AO2 T00580044
KARM 160735Z AUTO 00000KT 10SM OVC100 05/04 A3026 RMK AO2 T00520039
KARM 160715Z AUTO 00000KT 10SM BKN100 05/03 A3026 RMK AO2 T00470029
KARM 160655Z AUTO 00000KT 10SM CLR 05/03 A3027 RMK AO2 T00450031
KARM 160635Z AUTO 00000KT 10SM CLR 05/03 A3027 RMK AO2 T00470028
KARM 160615Z AUTO 00000KT 10SM CLR 06/03 A3028 RMK AO2 T00550029
KARM 160555Z AUTO 00000KT 10SM CLR 06/04 A3028 RMK AO2 T00550035 10105 20053 401240053
KARM 160535Z AUTO 00000KT 10SM CLR 06/04 A3029 RMK AO2 T00550035
KARM 160515Z AUTO 00000KT 10SM CLR 06/04 A3029 RMK AO2 T00600035
KARM 160455Z AUTO 00000KT 10SM CLR 07/04 A3030 RMK AO2 T00670036
KARM 160435Z AUTO 00000KT 10SM CLR 07/04 A3031 RMK AO2 T00710041
KARM 160415Z AUTO 00000KT 10SM CLR 08/03 A3030 RMK AO2 T00790033
KARM 160355Z AUTO 00000KT 10SM CLR 08/04 A3030 RMK AO2 T00820038
KARM 160335Z AUTO 00000KT 10SM CLR 08/04 A3030 RMK AO2 T00810037
KARM 160315Z AUTO 00000KT 10SM CLR 08/04 A3030 RMK AO2 T00830039
KARM 160255Z AUTO 00000KT 10SM CLR 09/04 A3031 RMK AO2 T00850040
KARM 160235Z AUTO 00000KT 10SM CLR 09/03 A3030 RMK AO2 T00850031
KARM 160215Z AUTO 00000KT 10SM CLR 09/04 A3029 RMK AO2 T00850036
KARM 160155Z AUTO 00000KT 10SM CLR 09/04 A3028 RMK AO2 T00850036
KARM 160135Z AUTO 00000KT 10SM CLR 09/03 A3028 RMK AO2 T00850029
KARM 160115Z AUTO 00000KT 10SM CLR 09/04 A3028 RMK AO2 T00860036
KARM 160055Z AUTO 00000KT 10SM CLR 09/03 A3028 RMK AO2 T00930028
KARM 160035Z AUTO 00000KT 10SM CLR 10/03 A3028 RMK AO2 T00970029
KARM 160015Z AUTO 00000KT 10SM CLR 10/00 A3028 RMK AO2 T01030001
KARM 152355Z AUTO 00000KT 10SM CLR 10/01 A3027 RMK AO2 T01040011 10124 20104
KARM 152335Z AUTO 00000KT 10SM CLR 11/00 A3027 RMK AO2 T01070004
KARM 152315Z AUTO 00000KT 10SM CLR 11/00 A3026 RMK AO2 T01100001
KARM 152255Z AUTO 00000KT 10SM CLR 12/00 A3026 RMK AO2 T01151005
KARM 152235Z AUTO 04004KT 10SM CLR 12/M01 A3025 RMK AO2 T01161009
KARM 152215Z AUTO 04005KT 10SM CLR 12/M01 A3025 RMK AO2 T01181011
KARM 152155Z AUTO 04004KT 10SM CLR 12/M01 A3026 RMK AO2 T01211009
KARM 152135Z AUTO 04005KT 10SM CLR 12/M01 A3025 RMK AO2 T01211011
KARM 152115Z AUTO 01006KT 10SM CLR 12/M01 A3027 RMK AO2 T01221008
KARM 152055Z AUTO 02003KT 10SM CLR 12/M01 A3027 RMK AO2 T01211007
KARM 152035Z AUTO 04005KT 10SM CLR 12/M01 A3027 RMK AO2 T01201012
KARM 152015Z AUTO 04006KT 10SM CLR 12/M01 A3026 RMK AO2 T01231011
KARM 151955Z AUTO 05004KT 10SM CLR 12/M01 A3027 RMK AO2 T01211010
KARM 151935Z AUTO 03006KT 10SM CLR 12/M01 A3027 RMK AO2 T01221008
KARM 151915Z AUTO 04006KT 10SM CLR 12/M01 A3027 RMK AO2 T01221009
KARM 151855Z AUTO 02007KT 10SM CLR 12/M01 A3029 RMK AO2 T01171008
KARM 151835Z AUTO 03008KT 10SM CLR 11/00 A3029 RMK AO2 T01131004
KARM 151815Z AUTO 03008KT 10SM CLR 11/00 A3030 RMK AO2 T01121003
KARM 151755Z AUTO 02007KT 10SM CLR 11/00 A3032 RMK AO2 T01071004 10111 20077
KARM 151735Z AUTO 01010KT 10SM CLR 11/00 A3032 RMK AO2 T01071004
KARM 151715Z AUTO 02009G16KT 10SM CLR 10/00 A3032 RMK AO2 T01021004
KARM 151655Z AUTO 01010G15KT 10SM CLR 10/00 A3032 RMK AO2 T01001005
KARM 151635Z AUTO 02009KT 10SM CLR 10/00 A3032 RMK AO2 T00961005
KARM 151615Z AUTO 01008G14KT 10SM SCT120 09/M01 A3031 RMK AO2 T00941007
KARM 151555Z AUTO 01010KT 10SM SCT120 09/M01 A3030 RMK AO2 T00921006
KARM 151535Z AUTO 36010G16KT 10SM CLR 09/00 A3029 RMK AO2 T00901005
KARM 151515Z AUTO 36013G17KT 10SM CLR 09/M01 A3029 RMK AO2 T00901007
KARM 151455Z AUTO 36012G18KT 10SM SCT120 09/M01 A3027 RMK AO2 T00881006
KARM 151435Z AUTO 36008KT 10SM SCT090 BKN120 09/00 A3026 RMK AO2 T00851001
KARM 151415Z AUTO 36007KT 10SM SCT070 OVC090 08/00 A3025 RMK AO2 T00810001
KARM 151355Z AUTO 36007KT 10SM -RA SCT060 OVC090 08/01 A3025 RMK AO2 T00780011
KARM 151335Z AUTO 33007KT 10SM -RA OVC090 08/01 A3025 RMK AO2 T00810007
KARM 151320Z AUTO 34006KT 10SM -DZ OVC090 08/01 A3024 RMK AO2 T00820006
KARM 151255Z AUTO 34006KT 10SM OVC100 09/01 A3022 RMK AO2 T00850005
KARM 151235Z AUTO 34005KT 10SM OVC100 09/00 A3021 RMK AO2 T00870001
KARM 151215Z AUTO 35007KT 10SM OVC100 09/00 A3020 RMK AO2 T00880001
KARM 151155Z AUTO 35009KT 10SM OVC100 09/00 A3019 RMK AO2 T00900000 10118 20090
KARM 151135Z AUTO 34011G15KT 10SM BKN100 10/00 A3019 RMK AO2 T00951001
KARM 151115Z AUTO 35011KT 10SM BKN110 10/00 A3018 RMK AO2 T00961002
KARM 151055Z AUTO 35007KT 10SM BKN110 10/00 A3019 RMK AO2 T00981001
KARM 151035Z AUTO 35007KT 10SM SCT110 10/00 A3018 RMK AO2 T01001001
KARM 151015Z AUTO 36008KT 10SM SCT120 10/00 A3018 RMK AO2 T01021001
KARM 150955Z AUTO 36008KT 10SM CLR 11/00 A3018 RMK AO2 T01051001
KARM 150935Z AUTO 35011G15KT 10SM CLR 11/00 A3018 RMK AO2 T01050000
KARM 150915Z AUTO 36009KT 10SM SCT110 11/00 A3017 RMK AO2 T01060001
KARM 150855Z AUTO 35010KT 10SM BKN100 11/00 A3016 RMK AO2 T01090001
KARM 150835Z AUTO 35010KT 10SM OVC110 11/00 A3016 RMK AO2 T01100003